Cielo D'italia — 3ESF7 — position and weather

sailwx.info

Track history (hours):
 
Tides and Currents Weather Stations Pressure Air Temp Water Temp Dewpoint Dewpoint Depression Visibility Wind Speed Wind Dir Waves Ship Positions

Cielo D'italia

Last reported at 2017-Dec-25 21:39 UTC. Time now 2018-Jan-19 13:29 UTC.
Position N 01°18' E 103°21'.
Warning: this ship's position is 24 days out of date.

Length 245 m; draft 16 m.

Type: Cargo ship. MMSI: 352485000.

Date/timePositionNaut miles runAvg speedWind from/ knotsBaromVisibWave heightAir tempDewpointWater temp
2017-Dec-25 21:39N 01°18' E 103°21'210.8
2017-Dec-25 21:27N 01°16' E 103°22'510.2
2017-Dec-25 20:59N 01°14' E 103°26'510.0
2017-Dec-25 20:30N 01°13' E 103°31'510.1
2017-Dec-25 20:00N 01°11' E 103°36'510.8
2017-Dec-25 19:30N 01°10' E 103°41'510.2
2017-Dec-25 19:00N 01°10' E 103°46'712.7
2017-Dec-25 18:29N 01°12' E 103°52'510.5
2017-Dec-25 17:59N 01°14' E 103°57'2 3.9
2017-Dec-25 17:28N 01°16' E 103°57'0 0.1
2017-Dec-25 13:31N 01°17' E 103°57'0 0.0
2017-Dec-25 06:52N 01°16' E 103°56'0 0.0
2017-Dec-25 06:28N 01°16' E 103°56'0 0.1
2017-Dec-25 05:55N 01°17' E 103°56'0 0.3
2017-Dec-25 05:29N 01°16' E 103°56'2 2.9
2017-Dec-25 04:58N 01°16' E 103°58'3 6.3
2017-Dec-25 04:29N 01°16' E 104°01'3 6.2
2017-Dec-25 04:00N 01°16' E 104°04'  
Track history (hours):
 
Tides and Currents Weather Stations Pressure Air Temp Water Temp Dewpoint Dewpoint Depression Visibility Wind Speed Wind Dir Waves Ship Positions

Cielo D'italia

Last reported at 2017-Dec-25 21:39 UTC. Time now 2018-Jan-19 13:29 UTC.
Position N 01°18' E 103°21'.
Warning: this ship's position is 24 days out of date.

Length 245 m; draft 16 m.

Type: Cargo ship. MMSI: 352485000.

Date/timePositionNaut miles runAvg speedWind from/ knotsBaromVisibWave heightAir tempDewpointWater temp
2017-Dec-25 21:39N 01°18' E 103°21'210.8
2017-Dec-25 21:27N 01°16' E 103°22'510.2
2017-Dec-25 20:59N 01°14' E 103°26'510.0
2017-Dec-25 20:30N 01°13' E 103°31'510.1
2017-Dec-25 20:00N 01°11' E 103°36'510.8
2017-Dec-25 19:30N 01°10' E 103°41'510.2
2017-Dec-25 19:00N 01°10' E 103°46'712.7
2017-Dec-25 18:29N 01°12' E 103°52'510.5
2017-Dec-25 17:59N 01°14' E 103°57'2 3.9
2017-Dec-25 17:28N 01°16' E 103°57'0 0.1
2017-Dec-25 13:31N 01°17' E 103°57'0 0.0
2017-Dec-25 06:52N 01°16' E 103°56'0 0.0
2017-Dec-25 06:28N 01°16' E 103°56'0 0.1
2017-Dec-25 05:55N 01°17' E 103°56'0 0.3
2017-Dec-25 05:29N 01°16' E 103°56'2 2.9
2017-Dec-25 04:58N 01°16' E 103°58'3 6.3
2017-Dec-25 04:29N 01°16' E 104°01'3 6.2
2017-Dec-25 04:00N 01°16' E 104°04'  

Dump ship's entire track history